Time;durP1;ratioP1;P1;durP2;ratioP2;P2;SDS_P1;SDS_P2;PMS_P1;PMS_P2;Temp;Humidity;BMP_temperature;BMP_pressure;BME280_temperature;BME280_humidity;BME280_pressure;Samples;Min_cycle;Max_cycle;Signal;HPM_P1;HPM_P2
2023/05/16 00:01:01;;;;;;;0.75;0.68;;;;;;;18.72;69.62;93425.69;5054071;28;20044;-82
2023/05/16 00:03:26;;;;;;;1.00;0.90;;;;;;;18.75;69.83;93418.94;5053920;28;20120;-82
2023/05/16 00:05:52;;;;;;;1.20;1.00;;;;;;;18.86;68.16;93425.25;5052937;28;20106;-82
2023/05/16 00:08:17;;;;;;;3.70;0.98;;;;;;;19.32;64.98;93418.75;5052143;28;20071;-82
2023/05/16 00:10:43;;;;;;;3.03;0.90;;;;;;;19.11;65.47;93411.09;5052555;28;20037;-82
2023/05/16 00:13:08;;;;;;;1.30;1.00;;;;;;;19.14;66.49;93413.78;5053774;28;20033;-82
2023/05/16 00:15:34;;;;;;;1.10;0.88;;;;;;;19.02;67.40;93412.03;5052568;28;20061;-82
2023/05/16 00:18:00;;;;;;;1.77;1.10;;;;;;;18.95;67.28;93409.19;5052000;28;20040;-82
2023/05/16 00:20:26;;;;;;;0.82;0.82;;;;;;;18.77;70.93;93408.75;5052436;28;20123;-82
2023/05/16 00:22:53;;;;;;;1.35;0.90;;;;;;;18.92;68.77;93401.88;5053695;28;20033;-82
2023/05/16 00:25:18;;;;;;;4.60;1.60;;;;;;;19.01;67.42;93409.69;5035718;28;20033;-82
2023/05/16 00:27:44;;;;;;;2.97;1.45;;;;;;;19.03;68.33;93408.25;5052187;28;20324;-82
2023/05/16 00:30:10;;;;;;;10.02;1.20;;;;;;;18.76;70.29;93400.00;5052695;28;20373;-82
2023/05/16 00:32:36;;;;;;;2.58;1.60;;;;;;;18.94;68.65;93389.06;5052374;28;20032;-82
2023/05/16 00:35:02;;;;;;;2.67;1.40;;;;;;;18.67;71.16;93396.00;5052362;28;20061;-82
2023/05/16 00:37:28;;;;;;;2.92;1.52;;;;;;;18.76;70.63;93386.00;5051964;28;20047;-82
2023/05/16 00:39:53;;;;;;;2.72;1.70;;;;;;;18.69;70.72;93375.97;5053584;28;20056;-82
2023/05/16 00:42:22;;;;;;;5.70;1.75;;;;;;;18.20;73.54;93372.50;5078940;28;20111;-82
2023/05/16 00:44:47;;;;;;;9.68;1.90;;;;;;;18.89;68.96;93368.09;5079018;28;20127;-82
2023/05/16 00:47:13;;;;;;;4.22;1.80;;;;;;;18.79;71.39;93382.66;5078738;28;20160;-82
2023/05/16 00:49:39;;;;;;;7.20;2.17;;;;;;;18.90;69.85;93367.75;5079106;28;20418;-82
2023/05/16 00:52:04;;;;;;;8.77;1.92;;;;;;;18.92;69.89;93365.50;5079275;28;20111;-82
2023/05/16 00:54:30;;;;;;;4.32;1.83;;;;;;;18.90;70.37;93351.03;5078832;28;20028;-82
2023/05/16 00:56:56;;;;;;;5.60;2.30;;;;;;;19.00;70.03;93349.78;5079046;28;20111;-82
2023/05/16 00:59:25;;;;;;;7.07;2.25;;;;;;;19.31;69.94;93361.44;5062002;28;20021;-82
2023/05/16 01:01:51;;;;;;;2.90;2.08;;;;;;;18.95;72.72;93356.09;5078825;28;20486;-82
2023/05/16 01:04:17;;;;;;;3.17;2.10;;;;;;;19.05;71.98;93360.13;5078779;28;20119;-82
2023/05/16 01:06:43;;;;;;;3.58;2.30;;;;;;;18.76;73.87;93368.19;5061781;28;20086;-82
2023/05/16 01:09:09;;;;;;;2.63;2.00;;;;;;;18.54;75.24;93352.88;5075067;28;20050;-82
2023/05/16 01:11:47;;;;;;;4.53;2.50;;;;;;;17.91;82.31;93355.84;5054308;28;20457;-82
2023/05/16 01:14:25;;;;;;;3.92;2.33;;;;;;;18.69;82.24;93346.78;5065255;28;20025;-81
2023/05/16 01:17:14;;;;;;;5.78;2.88;;;;;;;18.78;83.70;93339.41;5068506;28;20445;-82
2023/05/16 01:19:51;;;;;;;7.55;3.63;;;;;;;18.61;86.21;93350.38;5059654;28;20021;-81
2023/05/16 01:22:32;;;;;;;4.40;2.72;;;;;;;18.33;95.92;93332.66;5070983;28;20445;-82
2023/05/16 01:25:07;;;;;;;4.43;3.72;;;;;;;18.26;90.56;93340.47;5064667;28;20070;-82
2023/05/16 01:27:34;;;;;;;5.72;4.25;;;;;;;18.25;96.03;93323.78;5069038;28;20437;-82
2023/05/16 01:29:59;;;;;;;11.70;5.10;;;;;;;17.72;100.00;93334.50;5071400;28;20024;-82
2023/05/16 01:32:25;;;;;;;6.25;4.97;;;;;;;17.91;99.83;93329.34;5061801;28;20024;-82
2023/05/16 01:34:51;;;;;;;8.27;5.13;;;;;;;17.72;97.48;93315.97;5079365;28;20086;-82
2023/05/16 01:37:51;;;;;;;8.05;5.35;;;;;;;18.32;92.89;93318.66;5061236;28;20031;-81
2023/05/16 01:40:40;;;;;;;7.97;5.32;;;;;;;18.43;91.70;93305.66;5051100;28;20085;-82
2023/05/16 01:43:10;;;;;;;7.65;5.05;;;;;;;18.89;88.93;93307.84;5077875;28;20358;-82
2023/05/16 01:45:40;;;;;;;8.88;5.25;;;;;;;18.36;94.32;93306.25;5078062;28;20024;-82
2023/05/16 01:48:30;;;;;;;8.63;5.75;;;;;;;19.15;84.62;93309.16;5077486;28;20066;-81
2023/05/16 01:50:56;;;;;;;9.30;6.57;;;;;;;18.74;87.09;93301.44;5057111;28;20097;-82
2023/05/16 01:53:27;;;;;;;9.57;5.57;;;;;;;18.09;95.82;93284.03;5060436;28;20407;-82
2023/05/16 01:55:55;;;;;;;10.60;6.50;;;;;;;18.09;98.41;93295.38;5055649;28;20033;-82
2023/05/16 01:58:24;;;;;;;10.90;6.30;;;;;;;18.50;94.76;93263.38;5055127;28;20048;-82
2023/05/16 02:00:52;;;;;;;13.82;7.85;;;;;;;18.40;94.14;93285.13;5039003;28;20029;-82
2023/05/16 02:03:18;;;;;;;13.48;9.15;;;;;;;17.80;98.54;93270.78;5055472;28;20029;-82
2023/05/16 02:05:43;;;;;;;10.75;7.80;;;;;;;18.20;96.97;93265.72;5055597;28;20385;-82
2023/05/16 02:08:08;;;;;;;10.77;7.38;;;;;;;18.95;90.01;93284.44;5054783;28;20450;-82
2023/05/16 02:10:34;;;;;;;14.00;8.70;;;;;;;18.34;97.60;93286.47;5055125;28;20033;-82
2023/05/16 02:12:59;;;;;;;12.45;9.18;;;;;;;17.91;96.81;93281.66;5055103;28;20035;-82
2023/05/16 02:15:25;;;;;;;13.60;8.90;;;;;;;17.75;99.58;93268.38;5038838;28;20033;-82
2023/05/16 02:17:50;;;;;;;14.93;9.75;;;;;;;17.71;100.00;93280.75;5054781;28;20541;-82
2023/05/16 02:20:16;;;;;;;13.75;8.63;;;;;;;18.64;92.97;93280.72;5038801;28;20025;-82
2023/05/16 02:22:43;;;;;;;11.52;8.05;;;;;;;18.74;91.12;93269.59;5055076;28;20025;-82
2023/05/16 02:25:08;;;;;;;12.82;7.97;;;;;;;18.50;93.34;93279.28;5056284;28;20029;-82
2023/05/16 02:27:34;;;;;;;12.70;7.50;;;;;;;18.57;90.70;93283.22;5054445;28;20032;-82
2023/05/16 02:30:00;;;;;;;13.82;8.52;;;;;;;17.99;98.76;93282.59;5056274;28;20029;-82
2023/05/16 02:32:25;;;;;;;10.75;8.05;;;;;;;17.20;100.00;93268.84;5038401;28;20029;-82
2023/05/16 02:34:51;;;;;;;11.00;8.63;;;;;;;18.22;98.59;93282.03;5038096;28;20063;-82
2023/05/16 02:37:17;;;;;;;13.13;8.27;;;;;;;18.25;99.30;93277.94;5054307;28;20037;-82
2023/05/16 02:39:42;;;;;;;21.70;7.82;;;;;;;17.72;99.22;93263.78;5056027;28;20092;-82
2023/05/16 02:42:07;;;;;;;17.35;7.75;;;;;;;18.16;96.96;93275.47;5056110;28;20396;-82
2023/05/16 02:44:33;;;;;;;11.13;7.75;;;;;;;18.33;93.81;93272.47;5054796;28;20029;-82
2023/05/16 02:46:58;;;;;;;11.18;7.82;;;;;;;18.01;96.38;93263.72;5055425;28;20035;-82
2023/05/16 02:49:24;;;;;;;11.15;6.47;;;;;;;18.42;94.92;93256.38;5054455;28;20043;-82
2023/05/16 02:51:50;;;;;;;11.98;7.35;;;;;;;18.46;94.45;93259.13;5054443;28;20469;-82
2023/05/16 02:54:16;;;;;;;10.23;7.18;;;;;;;18.27;96.58;93249.97;5055706;28;20492;-82
2023/05/16 02:56:41;;;;;;;14.63;7.38;;;;;;;18.12;93.12;93248.88;5053929;28;20449;-82
2023/05/16 02:59:07;;;;;;;12.25;7.65;;;;;;;18.35;94.03;93242.94;5054397;28;20025;-82
2023/05/16 03:01:33;;;;;;;12.70;7.57;;;;;;;19.00;87.82;93244.38;5037634;28;20036;-82
2023/05/16 03:03:59;;;;;;;14.88;7.88;;;;;;;18.22;93.74;93229.81;5054527;28;20466;-82
2023/05/16 03:06:24;;;;;;;16.77;8.95;;;;;;;18.49;93.80;93227.34;5037897;28;20040;-82
2023/05/16 03:08:50;;;;;;;12.07;8.85;;;;;;;18.32;94.29;93227.72;5037357;28;20029;-82
2023/05/16 03:11:19;;;;;;;11.75;8.45;;;;;;;18.68;93.10;93209.19;5054078;28;20033;-82
2023/05/16 03:13:45;;;;;;;14.38;10.15;;;;;;;18.09;100.00;93237.06;5054264;28;20335;-82
2023/05/16 03:16:10;;;;;;;14.75;10.82;;;;;;;17.60;100.00;93253.25;5054019;28;20086;-82
2023/05/16 03:18:36;;;;;;;17.08;10.93;;;;;;;17.24;100.00;93290.13;5053624;28;20401;-82
2023/05/16 03:21:02;;;;;;;16.20;10.77;;;;;;;16.24;100.00;93261.13;5037334;28;20047;-82
2023/05/16 03:23:27;;;;;;;13.68;9.32;;;;;;;16.37;100.00;93277.72;5054054;28;20090;-82
2023/05/16 03:25:53;;;;;;;25.85;10.18;;;;;;;16.37;100.00;93267.16;5055085;28;20033;-82
2023/05/16 03:28:18;;;;;;;14.57;10.05;;;;;;;16.59;100.00;93269.69;5053402;28;20033;-82
2023/05/16 03:30:44;;;;;;;15.50;9.75;;;;;;;16.65;100.00;93261.19;5037954;28;20035;-82
2023/05/16 03:33:09;;;;;;;17.08;9.52;;;;;;;16.43;100.00;93275.66;5055863;28;20086;-82
2023/05/16 03:35:35;;;;;;;20.83;10.70;;;;;;;16.88;100.00;93275.81;5055850;28;20043;-82
2023/05/16 03:38:01;;;;;;;14.65;10.38;;;;;;;16.82;100.00;93264.69;5057410;28;20050;-82
2023/05/16 03:40:27;;;;;;;14.18;8.00;;;;;;;16.32;100.00;93282.47;5063627;28;20036;-81
2023/05/16 03:42:52;;;;;;;11.85;7.30;;;;;;;16.92;100.00;93303.94;5064773;28;20111;-82
2023/05/16 03:45:17;;;;;;;13.05;7.22;;;;;;;15.80;100.00;93322.31;5043865;28;20037;-82
2023/05/16 03:47:43;;;;;;;7.85;5.38;;;;;;;15.68;100.00;93314.34;5061154;28;20060;-82
2023/05/16 03:50:08;;;;;;;9.15;3.72;;;;;;;15.38;100.00;93325.00;5061549;28;20033;-82
2023/05/16 03:52:34;;;;;;;5.80;3.45;;;;;;;15.81;100.00;93328.38;5059635;28;20350;-82
2023/05/16 03:55:01;;;;;;;9.63;3.45;;;;;;;15.71;100.00;93315.56;5070210;28;20087;-82
2023/05/16 03:57:28;;;;;;;6.68;3.53;;;;;;;15.70;100.00;93325.34;5058863;28;20349;-82
2023/05/16 03:59:54;;;;;;;6.85;3.90;;;;;;;14.47;100.00;93311.09;5075550;28;20330;-82
2023/05/16 04:02:20;;;;;;;9.07;4.07;;;;;;;15.23;100.00;93334.28;5075515;28;20035;-82
2023/05/16 04:04:45;;;;;;;9.02;4.00;;;;;;;15.13;100.00;93328.28;5075484;28;20107;-82
2023/05/16 04:07:11;;;;;;;14.07;4.60;;;;;;;15.10;100.00;93331.56;5069578;28;20031;-82
2023/05/16 04:09:36;;;;;;;11.02;3.78;;;;;;;15.16;100.00;93331.38;5076424;28;20517;-82
2023/05/16 04:12:02;;;;;;;6.97;4.10;;;;;;;14.67;100.00;93324.66;5075391;28;20031;-82
2023/05/16 04:14:27;;;;;;;8.43;3.60;;;;;;;14.43;100.00;93326.00;5075133;28;20393;-82
2023/05/16 04:16:52;;;;;;;8.15;3.58;;;;;;;15.26;100.00;93326.47;5075196;28;20430;-82
2023/05/16 04:19:18;;;;;;;14.07;3.80;;;;;;;15.58;100.00;93339.28;5075267;28;20025;-82
2023/05/16 04:21:44;;;;;;;12.77;3.55;;;;;;;15.13;100.00;93330.16;5076466;28;20393;-81
2023/05/16 04:24:09;;;;;;;6.05;2.97;;;;;;;14.40;100.00;93330.03;5076500;28;20020;-82
2023/05/16 04:26:36;;;;;;;4.03;2.45;;;;;;;14.76;100.00;93332.56;5075234;28;20028;-82
2023/05/16 04:29:01;;;;;;;10.52;2.63;;;;;;;15.16;100.00;93340.06;5076324;28;20028;-82
2023/05/16 04:31:27;;;;;;;10.25;2.13;;;;;;;14.37;100.00;93329.91;5058635;28;20094;-82
2023/05/16 04:33:53;;;;;;;5.85;2.13;;;;;;;14.88;100.00;93318.69;5076433;28;20392;-81
2023/05/16 04:36:18;;;;;;;2.85;2.13;;;;;;;14.97;100.00;93312.25;5075084;28;20028;-82
2023/05/16 04:38:46;;;;;;;3.28;2.08;;;;;;;14.02;100.00;93315.00;5075786;28;20076;-82
2023/05/16 04:41:12;;;;;;;7.45;2.22;;;;;;;14.71;100.00;93299.19;5076424;28;20345;-82
2023/05/16 04:43:37;;;;;;;6.25;2.17;;;;;;;15.11;100.00;93311.22;5076583;28;20035;-81
2023/05/16 04:46:03;;;;;;;5.72;2.10;;;;;;;15.06;100.00;93312.22;5075176;28;20028;-82
2023/05/16 04:48:29;;;;;;;11.60;3.20;;;;;;;15.04;100.00;93317.00;5074811;28;20123;-82
2023/05/16 04:50:55;;;;;;;4.05;2.30;;;;;;;14.53;100.00;93317.75;5075019;28;20024;-82
2023/05/16 04:53:20;;;;;;;4.63;1.92;;;;;;;13.77;100.00;93316.59;5058584;28;20036;-82
2023/05/16 04:55:46;;;;;;;8.93;2.47;;;;;;;14.17;100.00;93323.47;5074988;28;20057;-82
2023/05/16 04:58:11;;;;;;;4.90;2.35;;;;;;;13.93;100.00;93320.28;5058411;28;20063;-82
2023/05/16 05:00:38;;;;;;;5.55;2.22;;;;;;;14.89;100.00;93321.00;5074859;28;20032;-81
2023/05/16 05:03:03;;;;;;;4.15;2.70;;;;;;;14.16;100.00;93316.66;5074959;28;20113;-82
2023/05/16 05:05:28;;;;;;;5.25;2.53;;;;;;;13.71;100.00;93322.03;5074865;28;20433;-82
2023/05/16 05:07:54;;;;;;;5.07;2.70;;;;;;;14.45;100.00;93323.06;5075551;28;20121;-81
2023/05/16 05:10:19;;;;;;;3.88;2.42;;;;;;;15.10;100.00;93314.97;5076002;28;20035;-82
2023/05/16 05:12:45;;;;;;;5.25;2.25;;;;;;;14.41;100.00;93325.56;5076358;28;20028;-81
2023/05/16 05:15:10;;;;;;;3.40;2.08;;;;;;;14.23;100.00;93312.47;5074871;28;20119;-82
2023/05/16 05:17:36;;;;;;;4.30;2.38;;;;;;;14.16;100.00;93327.19;5074788;28;20028;-82
2023/05/16 05:20:05;;;;;;;7.57;2.22;;;;;;;13.63;100.00;93322.81;5074795;28;20107;-82
2023/05/16 05:22:31;;;;;;;5.30;2.65;;;;;;;14.16;100.00;93327.19;5075833;28;20424;-82
2023/05/16 05:24:56;;;;;;;4.68;2.88;;;;;;;14.44;100.00;93327.56;5075929;28;20036;-81
2023/05/16 05:27:22;;;;;;;4.05;2.33;;;;;;;14.32;100.00;93319.53;5075872;28;20078;-81
2023/05/16 05:29:47;;;;;;;5.18;2.40;;;;;;;14.30;100.00;93327.78;5061387;28;20356;-82
2023/05/16 05:32:13;;;;;;;3.72;2.58;;;;;;;14.17;100.00;93318.97;5078441;28;20334;-81
2023/05/16 05:34:38;;;;;;;4.82;2.60;;;;;;;13.92;100.00;93320.59;5079445;28;20033;-81
2023/05/16 05:37:04;;;;;;;7.10;2.80;;;;;;;14.14;100.00;93316.97;5059602;28;20032;-82
2023/05/16 05:39:29;;;;;;;5.45;2.78;;;;;;;14.62;100.00;93317.72;5076847;28;20399;-81
2023/05/16 05:41:54;;;;;;;4.43;2.55;;;;;;;14.57;100.00;93305.47;5078072;28;20032;-82
2023/05/16 05:44:20;;;;;;;6.55;2.75;;;;;;;14.49;100.00;93295.78;5069363;28;20098;-81
2023/05/16 05:46:46;;;;;;;2.70;2.03;;;;;;;14.24;100.00;93306.09;5068181;28;20115;-82
2023/05/16 05:49:11;;;;;;;4.55;2.70;;;;;;;14.49;100.00;93293.13;5053894;28;20032;-82
2023/05/16 05:51:37;;;;;;;3.53;2.13;;;;;;;14.25;100.00;93291.03;5078156;28;20033;-82
2023/05/16 05:54:03;;;;;;;4.68;2.20;;;;;;;14.73;100.00;93283.09;5077798;28;20040;-82
2023/05/16 05:56:28;;;;;;;2.95;2.10;;;;;;;15.06;100.00;93279.78;5076509;28;20068;-82
2023/05/16 05:58:53;;;;;;;3.65;1.80;;;;;;;14.57;100.00;93284.38;5077295;28;20047;-82
2023/05/16 06:01:22;;;;;;;5.07;1.50;;;;;;;14.33;100.00;93286.81;5077768;28;20024;-82
2023/05/16 06:03:47;;;;;;;4.90;1.40;;;;;;;14.49;100.00;93276.53;5078020;28;20102;-82
2023/05/16 06:06:14;;;;;;;2.30;1.30;;;;;;;14.78;100.00;93278.41;5077536;28;20082;-82
2023/05/16 06:08:39;;;;;;;6.40;1.52;;;;;;;14.63;100.00;93276.28;5077221;28;20043;-82
2023/05/16 06:11:06;;;;;;;2.70;1.42;;;;;;;14.33;100.00;93273.66;5061382;28;20033;-82
2023/05/16 06:13:31;;;;;;;5.75;1.70;;;;;;;14.56;100.00;93274.94;5077604;28;20103;-82
2023/05/16 06:15:57;;;;;;;6.53;1.13;;;;;;;14.45;100.00;93275.63;5077417;28;20028;-82
2023/05/16 06:18:22;;;;;;;3.65;1.30;;;;;;;14.97;100.00;93277.22;5078441;28;20028;-82
2023/05/16 06:20:48;;;;;;;8.70;1.20;;;;;;;15.29;100.00;93279.47;5061429;28;20087;-82
2023/05/16 06:23:13;;;;;;;2.70;1.10;;;;;;;14.61;100.00;93273.19;5065615;28;20430;-81
2023/05/16 06:25:38;;;;;;;4.18;1.33;;;;;;;14.19;100.00;93277.28;5077888;28;20037;-82
2023/05/16 06:28:06;;;;;;;7.32;1.65;;;;;;;14.61;100.00;93263.44;5076664;28;20123;-86
2023/05/16 06:30:31;;;;;;;7.43;1.58;;;;;;;13.95;100.00;93260.19;5077085;28;20039;-82
2023/05/16 06:32:57;;;;;;;3.47;1.85;;;;;;;13.48;100.00;93266.19;5078245;28;20028;-82
2023/05/16 06:35:22;;;;;;;4.70;1.77;;;;;;;14.45;100.00;93257.94;5077076;28;20066;-81
2023/05/16 06:37:48;;;;;;;4.82;1.95;;;;;;;14.87;100.00;93254.63;5076064;28;20357;-82
2023/05/16 06:40:13;;;;;;;4.03;1.65;;;;;;;14.90;100.00;93258.47;5077123;28;20032;-82
2023/05/16 06:42:38;;;;;;;8.35;1.63;;;;;;;14.12;100.00;93254.06;5077925;28;20349;-82
2023/05/16 06:45:05;;;;;;;4.03;1.80;;;;;;;14.81;100.00;93259.31;5076994;28;20036;-82
2023/05/16 06:47:30;;;;;;;4.75;1.63;;;;;;;14.76;100.00;93266.63;5076406;28;20028;-82
2023/05/16 06:49:55;;;;;;;2.20;1.63;;;;;;;15.17;100.00;93274.88;5059879;28;20051;-82
2023/05/16 06:52:21;;;;;;;3.08;1.60;;;;;;;14.87;100.00;93269.66;5076509;28;20392;-82
2023/05/16 06:54:46;;;;;;;2.40;1.90;;;;;;;15.07;100.00;93278.69;5076346;28;20094;-82
2023/05/16 06:57:13;;;;;;;6.70;2.05;;;;;;;13.97;100.00;93270.38;5075986;28;20032;-82
2023/05/16 06:59:40;;;;;;;3.58;1.80;;;;;;;14.28;100.00;93288.56;5062895;28;20036;-82
2023/05/16 07:02:06;;;;;;;3.15;1.98;;;;;;;14.75;100.00;93279.03;5076385;28;20507;-82
2023/05/16 07:04:31;;;;;;;3.20;1.88;;;;;;;14.54;100.00;93269.22;5059896;28;20036;-83
2023/05/16 07:06:57;;;;;;;1.92;1.70;;;;;;;14.56;100.00;93272.31;5077420;28;20111;-82
2023/05/16 07:09:22;;;;;;;2.03;1.50;;;;;;;14.49;100.00;93264.16;5066239;28;20040;-82
2023/05/16 07:11:48;;;;;;;4.65;1.80;;;;;;;14.24;100.00;93250.78;5059700;28;20115;-82
2023/05/16 07:14:13;;;;;;;3.53;1.67;;;;;;;14.59;100.00;93249.81;5076512;28;20136;-82
2023/05/16 07:16:39;;;;;;;2.88;1.90;;;;;;;14.42;100.00;93250.69;5067144;28;20091;-82
2023/05/16 07:19:04;;;;;;;3.72;2.13;;;;;;;14.60;100.00;93256.63;5071443;28;20024;-82
2023/05/16 07:21:29;;;;;;;3.40;2.00;;;;;;;14.33;100.00;93247.31;5075967;28;20039;-83
2023/05/16 07:23:55;;;;;;;2.70;2.00;;;;;;;14.26;100.00;93251.22;5077152;28;20085;-82
2023/05/16 07:26:22;;;;;;;3.00;2.20;;;;;;;14.81;100.00;93248.78;5075686;28;20036;-82
2023/05/16 07:28:48;;;;;;;4.90;2.55;;;;;;;15.38;100.00;93248.47;5055251;28;20032;-82
2023/05/16 07:31:15;;;;;;;5.60;2.40;;;;;;;14.79;100.00;93239.63;5074371;28;20480;-82
2023/05/16 07:33:40;;;;;;;5.93;2.10;;;;;;;14.56;100.00;93251.22;5075662;28;20028;-82
2023/05/16 07:36:06;;;;;;;5.43;2.13;;;;;;;23.16;76.77;93233.97;5075927;28;20032;-82
2023/05/16 07:38:32;;;;;;;3.90;2.00;;;;;;;19.92;80.67;93229.78;5075408;28;20430;-83
2023/05/16 07:40:57;;;;;;;9.40;3.13;;;;;;;-148.68;100.00;62903.81;5059256;28;20038;-83
2023/05/16 07:43:23;;;;;;;2.70;1.75;;;;;;;23.77;54.86;93235.34;5058455;28;20033;-82
2023/05/16 07:45:48;;;;;;;4.70;2.63;;;;;;;23.03;58.06;93236.22;5069362;28;20434;-82
2023/05/16 07:48:14;;;;;;;3.28;2.20;;;;;;;23.06;59.74;93240.03;5060967;28;20032;-83
2023/05/16 07:50:39;;;;;;;3.42;1.90;;;;;;;21.44;64.24;93231.09;5073995;28;20032;-83
2023/05/16 07:53:05;;;;;;;2.47;1.85;;;;;;;21.63;66.32;93229.41;5076640;28;20033;-83
2023/05/16 07:55:30;;;;;;;3.22;1.77;;;;;;;23.19;60.63;93232.47;5076787;28;20035;-82
2023/05/16 07:57:56;;;;;;;4.38;1.67;;;;;;;22.36;63.61;93227.41;5075088;28;20021;-82
2023/05/16 08:00:22;;;;;;;2.03;1.45;;;;;;;21.30;69.24;93237.06;5058167;28;20029;-82
2023/05/16 08:02:47;;;;;;;4.30;1.10;;;;;;;19.97;74.33;93238.59;5055665;28;20067;-83
2023/05/16 08:05:12;;;;;;;5.47;1.30;;;;;;;20.10;75.43;93239.94;5055397;28;20036;-82
2023/05/16 08:07:38;;;;;;;2.15;1.33;;;;;;;21.44;72.79;93230.34;5073699;28;20028;-82
2023/05/16 08:10:04;;;;;;;2.97;1.00;;;;;;;20.59;72.00;93242.97;5075328;28;20024;-83
2023/05/16 08:12:29;;;;;;;1.33;1.10;;;;;;;21.48;69.13;93233.81;5076456;28;20031;-83
2023/05/16 08:14:55;;;;;;;1.70;1.17;;;;;;;20.42;76.87;93230.91;5075389;28;20074;-83
2023/05/16 08:17:21;;;;;;;10.73;1.30;;;;;;;19.32;85.75;93243.50;5075000;28;20032;-83
2023/05/16 08:19:48;;;;;;;1.65;1.05;;;;;;;19.85;79.83;93237.59;5075505;28;20071;-83
2023/05/16 08:22:14;;;;;;;1.75;1.10;;;;;;;20.52;78.64;93250.84;5075044;28;20426;-83
2023/05/16 08:24:40;;;;;;;1.65;0.90;;;;;;;19.64;83.81;93249.38;5075275;28;20056;-83
2023/05/16 08:27:05;;;;;;;1.85;0.80;;;;;;;19.69;86.67;93240.38;5074523;28;20074;-83
2023/05/16 08:29:30;;;;;;;8.43;1.00;;;;;;;21.11;77.20;93255.84;5058056;28;20051;-83
2023/05/16 08:31:56;;;;;;;1.80;0.90;;;;;;;19.29;86.51;93233.56;5075124;28;20116;-83
2023/05/16 08:34:21;;;;;;;1.60;0.90;;;;;;;20.44;75.69;93218.03;5075359;28;20032;-84
2023/05/16 08:36:47;;;;;;;1.20;0.90;;;;;;;20.89;72.38;93223.63;5074812;28;20036;-83
2023/05/16 08:39:13;;;;;;;11.60;1.98;;;;;;;21.16;71.38;93226.22;5075201;28;20021;-84
2023/05/16 08:41:39;;;;;;;1.92;1.00;;;;;;;21.32;71.51;93218.06;5074933;28;20044;-83
2023/05/16 08:44:05;;;;;;;2.50;1.00;;;;;;;22.10;67.78;93224.53;5073894;28;20028;-83
2023/05/16 08:46:32;;;;;;;4.82;1.23;;;;;;;20.10;80.29;93216.03;5055041;28;20029;-84
2023/05/16 08:49:00;;;;;;;2.03;1.00;;;;;;;19.77;79.81;93220.00;5054617;28;20064;-84
2023/05/16 08:51:26;;;;;;;1.35;1.05;;;;;;;19.25;82.75;93225.53;5038766;28;20446;-84
2023/05/16 08:53:58;;;;;;;3.85;1.15;;;;;;;21.17;73.86;93215.22;5055712;28;20426;-83
2023/05/16 08:56:24;;;;;;;4.25;1.40;;;;;;;20.53;79.65;93239.84;5054453;28;20032;-83
2023/05/16 08:58:50;;;;;;;6.40;1.90;;;;;;;20.96;79.23;93253.00;5054526;28;20025;-83
2023/05/16 09:01:16;;;;;;;9.27;2.05;;;;;;;20.20;78.87;93257.94;5055997;28;20025;-83
2023/05/16 09:03:42;;;;;;;9.98;3.47;;;;;;;19.40;83.22;93239.09;5042190;28;20453;-84
2023/05/16 09:06:07;;;;;;;11.02;2.97;;;;;;;18.64;86.69;93262.16;5058486;28;20033;-84
2023/05/16 09:08:33;;;;;;;9.02;3.53;;;;;;;20.24;80.92;93217.38;5058495;28;20032;-84
2023/05/16 09:11:00;;;;;;;7.97;3.65;;;;;;;18.74;93.06;93244.97;5058764;28;20029;-84
2023/05/16 09:13:26;;;;;;;7.35;4.05;;;;;;;18.37;91.17;93257.41;5059120;28;20445;-83
2023/05/16 09:16:11;;;;;;;8.02;4.95;;;;;;;19.84;82.49;93243.28;5062080;28;20028;-84
2023/05/16 09:18:36;;;;;;;8.13;5.00;;;;;;;19.15;90.98;93252.63;5061437;28;20134;-84
2023/05/16 09:21:04;;;;;;;10.30;5.88;;;;;;;19.82;86.46;93235.66;5078189;28;20074;-84
2023/05/16 09:23:29;;;;;;;7.40;5.15;;;;;;;18.77;92.87;93245.00;5061981;28;20028;-84
2023/05/16 09:25:57;;;;;;;7.97;5.80;;;;;;;19.02;85.88;93238.75;5056024;28;20024;-84
2023/05/16 09:28:22;;;;;;;11.10;6.53;;;;;;;19.68;84.84;93251.34;5071589;28;20079;-83
2023/05/16 09:30:48;;;;;;;15.60;6.55;;;;;;;18.64;88.04;93238.28;5041965;28;20028;-84
2023/05/16 09:33:14;;;;;;;8.20;5.72;;;;;;;18.18;99.24;93238.78;5058712;28;20120;-83
2023/05/16 09:35:39;;;;;;;12.80;6.28;;;;;;;19.05;91.00;93228.16;5075767;28;20034;-83
2023/05/16 09:38:05;;;;;;;12.50;6.72;;;;;;;18.11;100.00;93223.47;5063412;28;20345;-83
2023/05/16 09:40:30;;;;;;;13.38;7.40;;;;;;;18.45;97.10;93233.72;5061441;28;20029;-84
2023/05/16 09:43:06;;;;;;;13.48;7.90;;;;;;;20.32;80.58;93221.66;5054292;28;20422;-84
2023/05/16 09:45:33;;;;;;;15.85;8.18;;;;;;;19.54;91.27;93228.72;5055406;28;20033;-85
2023/05/16 09:48:11;;;;;;;12.75;7.00;;;;;;;20.20;90.21;93212.00;5065747;28;20472;-84
2023/05/16 09:50:37;;;;;;;10.77;6.65;;;;;;;19.56;88.56;93205.22;5076288;28;20052;-83
2023/05/16 09:53:03;;;;;;;12.32;7.35;;;;;;;19.99;84.60;93212.41;5077800;28;20033;-84
2023/05/16 09:55:30;;;;;;;9.32;6.25;;;;;;;20.30;82.59;93223.91;5061200;28;20040;-84
2023/05/16 09:57:55;;;;;;;8.02;5.60;;;;;;;18.86;93.32;93209.56;5060967;28;20078;-84
2023/05/16 10:00:21;;;;;;;8.05;5.40;;;;;;;18.27;98.01;93220.81;5078029;28;20032;-84
2023/05/16 10:02:46;;;;;;;9.27;5.90;;;;;;;19.42;88.95;93226.97;5077782;28;20040;-83
2023/05/16 10:05:13;;;;;;;12.15;6.65;;;;;;;18.95;90.20;93220.75;5061170;28;20060;-84
2023/05/16 10:07:39;;;;;;;12.57;6.30;;;;;;;19.20;88.17;93241.72;5078411;28;20376;-83
2023/05/16 10:10:06;;;;;;;13.93;7.10;;;;;;;17.89;97.25;93235.41;5077527;28;20036;-83
2023/05/16 10:12:32;;;;;;;12.68;7.30;;;;;;;18.37;95.48;93260.06;5073897;28;20032;-84
2023/05/16 10:15:02;;;;;;;12.65;7.18;;;;;;;18.25;94.48;93232.88;5053534;28;20024;-84
2023/05/16 10:17:31;;;;;;;11.27;7.43;;;;;;;18.58;93.85;93244.97;5061906;28;20032;-84
2023/05/16 10:19:57;;;;;;;11.98;6.82;;;;;;;17.69;100.00;93245.13;5072254;28;20033;-84
2023/05/16 10:22:23;;;;;;;10.85;6.40;;;;;;;19.46;92.63;93254.38;5054553;28;20036;-84
2023/05/16 10:25:00;;;;;;;14.25;8.02;;;;;;;18.75;91.77;93260.50;5051566;28;20040;-84
2023/05/16 10:27:25;;;;;;;12.20;8.13;;;;;;;20.23;79.72;93264.47;5060362;28;20036;-84
2023/05/16 10:29:51;;;;;;;15.13;7.97;;;;;;;18.83;90.11;93239.44;5057220;28;20029;-84
2023/05/16 10:32:17;;;;;;;14.60;8.95;;;;;;;19.36;91.38;93239.75;5057239;28;20119;-84
2023/05/16 10:34:44;;;;;;;12.65;8.48;;;;;;;18.85;94.57;93253.88;5057115;28;20051;-83
2023/05/16 10:37:10;;;;;;;19.67;10.00;;;;;;;18.53;93.64;93242.59;5056539;28;20032;-84
2023/05/16 10:39:37;;;;;;;17.95;8.88;;;;;;;18.39;100.00;93232.44;5040647;28;20025;-84
2023/05/16 10:42:03;;;;;;;13.18;8.38;;;;;;;18.08;99.34;93235.53;5057079;28;20025;-83
2023/05/16 10:44:31;;;;;;;11.45;6.57;;;;;;;18.97;97.01;93231.78;5056799;28;20066;-83
2023/05/16 10:46:58;;;;;;;10.40;6.32;;;;;;;18.73;96.85;93238.88;5056616;28;20028;-83
2023/05/16 10:49:24;;;;;;;9.45;6.82;;;;;;;19.86;89.70;93252.44;5056943;28;20488;-84
2023/05/16 10:52:04;;;;;;;8.13;6.53;;;;;;;19.57;90.04;93238.63;5057065;28;20120;-84
2023/05/16 10:54:42;;;;;;;9.50;6.35;;;;;;;17.22;100.00;93228.81;5056681;28;20032;-84
2023/05/16 10:57:10;;;;;;;9.25;6.00;;;;;;;16.63;100.00;93231.69;5070754;28;20466;-84
2023/05/16 10:59:41;;;;;;;7.28;5.57;;;;;;;16.24;100.00;93239.19;5076635;28;20028;-84
2023/05/16 11:02:20;;;;;;;9.57;6.05;;;;;;;16.76;100.00;93229.00;5076475;28;20115;-84
2023/05/16 11:04:48;;;;;;;9.55;5.35;;;;;;;16.75;100.00;93238.81;5077561;28;20121;-84
2023/05/16 11:07:16;;;;;;;9.55;5.38;;;;;;;14.98;100.00;93236.56;5076251;28;20030;-84
2023/05/16 11:09:44;;;;;;;12.35;8.32;;;;;;;15.71;100.00;93244.28;5076304;28;20331;-84
2023/05/16 11:12:09;;;;;;;8.77;5.43;;;;;;;15.92;100.00;93242.38;5059830;28;20344;-85
2023/05/16 11:14:41;;;;;;;7.28;4.20;;;;;;;15.40;100.00;93246.28;5076476;28;20025;-84
2023/05/16 11:17:14;;;;;;;6.03;3.90;;;;;;;15.49;100.00;93272.59;5058420;28;20040;-84
2023/05/16 11:19:39;;;;;;;5.65;4.53;;;;;;;15.05;100.00;93260.53;5059473;28;20432;-83
2023/05/16 11:22:11;;;;;;;6.35;4.78;;;;;;;15.47;100.00;93258.94;5060927;28;20129;-83
2023/05/16 11:24:38;;;;;;;6.43;5.03;;;;;;;15.54;100.00;93259.19;5055195;28;20029;-83